createdAt,value
2023-01-04T12:59:26.916Z,7.34
2023-01-04T13:00:03.148Z,7.34
2023-01-04T13:05:45.368Z,7.25
2023-01-04T13:10:02.839Z,7.21
2023-01-04T13:15:02.843Z,7.1
2023-01-04T13:20:02.545Z,7.16
2023-01-04T13:25:02.207Z,7.11
2023-01-04T13:30:02.513Z,7.07
2023-01-04T13:35:05.700Z,7.16
2023-01-04T13:40:02.575Z,7.2
2023-01-04T13:45:19.469Z,7.32
2023-01-04T13:50:02.634Z,7.23
2023-01-04T13:55:03.167Z,7.29
2023-01-04T14:00:03.129Z,7.33
2023-01-04T14:05:02.866Z,7.28
2023-01-04T14:10:02.891Z,7.31
2023-01-04T14:15:02.674Z,7.42
2023-01-04T14:20:02.463Z,7.48
2023-01-04T14:25:10.300Z,7.48
2023-01-04T14:30:02.806Z,7.45
2023-01-04T14:35:02.532Z,7.52
2023-01-04T14:40:02.310Z,7.57
2023-01-04T14:45:02.275Z,7.6
2023-01-04T14:50:02.947Z,7.64
2023-01-04T14:55:03.461Z,7.65
2023-01-04T15:00:02.807Z,7.89
2023-01-04T15:05:02.301Z,7.83
2023-01-04T15:10:03.122Z,7.93
2023-01-04T15:15:02.872Z,7.97
2023-01-04T15:20:03.052Z,8.08
2023-01-04T15:25:02.742Z,8.08
2023-01-04T15:30:02.592Z,8.18
2023-01-04T15:35:02.329Z,8.19
2023-01-04T15:40:03.472Z,8.29
2023-01-04T15:45:03.093Z,8.11
2023-01-04T15:50:02.741Z,8.22
2023-01-04T15:55:02.873Z,8.23
2023-01-04T16:00:02.512Z,8.33
2023-01-04T16:05:03.123Z,8.16
2023-01-04T16:10:02.928Z,8.2
2023-01-04T16:15:03.115Z,8.35
2023-01-04T16:20:02.837Z,8.25
2023-01-04T16:25:11.133Z,8.3
2023-01-04T16:30:02.634Z,8.18
2023-01-04T16:35:02.293Z,8.35
2023-01-04T16:40:07.547Z,8.46
2023-01-04T16:45:02.380Z,8.51
2023-01-04T16:50:02.203Z,8.62
2023-01-04T16:55:03.594Z,8.62
2023-01-04T17:00:02.711Z,8.69
2023-01-04T17:05:02.413Z,8.65
2023-01-04T17:10:02.463Z,8.79
2023-01-04T17:20:02.450Z,9.01
2023-01-04T17:25:02.341Z,8.95
2023-01-04T17:30:03.057Z,9.06
2023-01-04T17:35:02.939Z,8.92
2023-01-04T17:40:02.742Z,8.72
2023-01-04T17:45:02.672Z,8.65
2023-01-04T17:50:02.352Z,8.72
2023-01-04T17:55:04.090Z,8.57
2023-01-04T18:00:02.812Z,8.47
2023-01-04T18:05:02.506Z,8.39
2023-01-04T18:10:02.541Z,8.39
2023-01-04T18:15:02.342Z,8.4
2023-01-04T18:20:03.174Z,8.34
2023-01-04T18:25:02.809Z,8.6
2023-01-04T18:30:02.712Z,8.65
2023-01-04T18:35:02.650Z,8.67
2023-01-04T18:40:02.861Z,8.78
2023-01-04T18:45:02.862Z,8.9
2023-01-04T18:50:02.699Z,8.8
2023-01-04T18:55:02.919Z,8.67
2023-01-04T19:00:03.154Z,8.64
2023-01-04T19:05:02.968Z,8.7
2023-01-04T19:10:02.744Z,8.56
2023-01-04T19:15:02.779Z,8.49
2023-01-04T19:20:02.631Z,8.51
2023-01-04T19:25:03.063Z,8.42
2023-01-04T19:30:02.817Z,8.41
2023-01-04T19:35:02.420Z,8.46
2023-01-04T19:40:03.133Z,8.44
2023-01-04T19:45:03.088Z,8.5
2023-01-04T19:55:03.674Z,8.74
2023-01-04T20:00:02.639Z,8.78
2023-01-04T20:05:02.426Z,9.09
2023-01-04T20:10:02.243Z,9.34
2023-01-04T20:15:03.014Z,9.29
2023-01-04T20:20:02.878Z,9.67
2023-01-04T20:25:02.540Z,9.69
2023-01-04T20:30:02.411Z,9.75
2023-01-04T20:35:03.230Z,9.9
2023-01-04T20:40:02.928Z,9.81
2023-01-04T20:45:03.001Z,9.92
2023-01-04T20:50:02.687Z,9.66
2023-01-04T20:55:03.474Z,9.47
2023-01-04T21:00:03.060Z,9.28
2023-01-04T21:05:02.732Z,9.15
2023-01-04T21:10:02.545Z,9.07
2023-01-04T21:15:02.319Z,9.05
2023-01-04T21:25:02.830Z,9.06
2023-01-04T21:30:02.707Z,8.97
2023-01-04T21:35:02.668Z,9.12
2023-01-04T21:40:02.396Z,9.08
2023-01-04T21:45:03.182Z,9.08
2023-01-04T21:50:02.920Z,9.14
2023-01-04T21:55:03.227Z,9.23
2023-01-04T22:00:02.431Z,9.12
2023-01-04T22:05:03.098Z,9.15
2023-01-04T22:10:02.870Z,9.27
2023-01-04T22:15:02.880Z,9.35
2023-01-04T22:20:02.728Z,9.56
2023-01-04T22:25:02.481Z,9.43
2023-01-04T22:30:03.216Z,9.7
2023-01-04T22:35:02.867Z,9.69
2023-01-04T22:40:02.516Z,9.71
2023-01-04T22:45:03.485Z,9.67
2023-01-04T22:50:02.189Z,9.62
2023-01-04T22:55:03.507Z,9.67
2023-01-04T23:00:02.989Z,9.59
2023-01-04T23:05:02.689Z,9.57
2023-01-04T23:10:02.469Z,9.53
2023-01-04T23:15:03.435Z,9.44
2023-01-04T23:20:06.543Z,9.49
2023-01-04T23:30:02.802Z,9.19
2023-01-04T23:35:02.898Z,9.19
2023-01-04T23:40:02.383Z,9.15
2023-01-04T23:45:03.123Z,9.22
2023-01-04T23:50:02.896Z,9.07
2023-01-04T23:55:04.128Z,9.16
